createdAt,value
2023-05-08T00:00:16.300Z,95312.00
2023-05-08T00:01:16.568Z,95312.00
2023-05-08T00:02:16.313Z,95310.00
2023-05-08T00:03:16.452Z,95310.00
2023-05-08T00:04:16.421Z,95310.00
2023-05-08T00:05:16.258Z,95306.00
2023-05-08T00:06:16.233Z,95308.00
2023-05-08T00:07:16.213Z,95308.00
2023-05-08T00:08:16.193Z,95312.00
2023-05-08T00:09:16.189Z,95312.00
2023-05-08T00:10:16.262Z,95310.00
2023-05-08T00:11:16.170Z,95310.00
2023-05-08T00:12:16.171Z,95312.00
2023-05-08T00:13:16.272Z,95314.00
2023-05-08T00:14:16.149Z,95318.00
2023-05-08T00:15:16.107Z,95320.00
2023-05-08T00:16:16.167Z,95322.00
2023-05-08T00:17:16.078Z,95320.00
2023-05-08T00:18:16.078Z,95316.00
2023-05-08T00:19:16.056Z,95316.00
2023-05-08T00:20:16.067Z,95318.00
2023-05-08T00:21:16.061Z,95318.00
2023-05-08T00:22:16.048Z,95320.00
2023-05-08T00:23:16.034Z,95318.00
2023-05-08T00:24:16.026Z,95318.00
2023-05-08T00:25:16.019Z,95324.00
2023-05-08T00:26:16.006Z,95322.00
2023-05-08T00:27:15.988Z,95324.00
2023-05-08T00:28:15.992Z,95322.00
2023-05-08T00:29:16.020Z,95320.00
2023-05-08T00:30:15.961Z,95324.00
2023-05-08T00:31:15.951Z,95322.00
2023-05-08T00:32:16.195Z,95320.00
2023-05-08T00:33:15.999Z,95322.00
2023-05-08T00:34:15.909Z,95322.00
2023-05-08T00:35:15.916Z,95324.00
2023-05-08T00:36:15.960Z,95326.00
2023-05-08T00:37:15.888Z,95326.00
2023-05-08T00:38:15.859Z,95326.00
2023-05-08T00:39:15.858Z,95328.00
2023-05-08T00:40:16.093Z,95332.00
2023-05-08T00:41:15.837Z,95330.00
2023-05-08T00:42:15.820Z,95330.00
2023-05-08T00:43:15.841Z,95332.00
2023-05-08T00:44:15.845Z,95332.00
2023-05-08T00:45:15.885Z,95330.00
2023-05-08T00:46:15.894Z,95332.00
2023-05-08T00:47:15.869Z,95334.00
2023-05-08T00:48:15.873Z,95334.00
2023-05-08T00:49:15.879Z,95332.00
2023-05-08T00:50:15.954Z,95332.00
2023-05-08T00:51:15.866Z,95334.00
2023-05-08T00:52:15.863Z,95334.00
2023-05-08T00:53:15.855Z,95334.00
2023-05-08T00:54:15.839Z,95336.00
2023-05-08T00:55:15.829Z,95334.00
2023-05-08T00:56:15.831Z,95336.00
2023-05-08T00:57:15.830Z,95334.00
2023-05-08T00:58:15.817Z,95334.00
2023-05-08T00:59:15.790Z,95334.00
2023-05-08T01:00:15.773Z,95330.00
2023-05-08T01:01:15.988Z,95332.00
2023-05-08T01:02:15.858Z,95332.00
2023-05-08T01:03:15.919Z,95336.00
2023-05-08T01:04:15.777Z,95334.00
2023-05-08T01:05:15.785Z,95334.00
2023-05-08T01:06:15.783Z,95334.00
2023-05-08T01:07:15.781Z,95332.00
2023-05-08T01:08:15.790Z,95330.00
2023-05-08T01:09:15.781Z,95328.00
2023-05-08T01:10:15.929Z,95330.00
2023-05-08T01:11:15.759Z,95330.00
2023-05-08T01:12:15.748Z,95330.00
2023-05-08T01:13:15.771Z,95328.00
2023-05-08T01:14:15.710Z,95332.00
2023-05-08T01:15:15.718Z,95332.00
2023-05-08T01:16:15.722Z,95332.00
2023-05-08T01:17:15.700Z,95334.00
2023-05-08T01:18:15.694Z,95332.00
2023-05-08T01:19:15.676Z,95336.00
2023-05-08T01:20:15.891Z,95334.00
2023-05-08T01:21:15.685Z,95332.00
2023-05-08T01:22:15.695Z,95334.00
2023-05-08T01:23:15.700Z,95334.00
2023-05-08T01:24:15.704Z,95334.00
2023-05-08T01:25:15.714Z,95336.00
2023-05-08T01:26:15.771Z,95336.00
2023-05-08T01:27:15.711Z,95332.00
2023-05-08T01:28:15.693Z,95336.00
2023-05-08T01:29:15.675Z,95336.00
2023-05-08T01:30:16.606Z,95336.00
2023-05-08T01:31:15.658Z,95338.00
2023-05-08T01:32:15.662Z,95338.00
2023-05-08T01:33:15.792Z,95338.00
2023-05-08T01:34:15.658Z,95342.00
2023-05-08T01:35:15.610Z,95340.00
2023-05-08T01:36:15.612Z,95340.00
2023-05-08T01:37:15.644Z,95342.00
2023-05-08T01:38:15.609Z,95342.00
2023-05-08T01:39:15.607Z,95344.00
2023-05-08T01:40:15.937Z,95346.00
2023-05-08T01:41:15.571Z,95348.00
2023-05-08T01:42:15.554Z,95346.00
2023-05-08T01:43:15.562Z,95348.00
2023-05-08T01:44:15.549Z,95348.00
2023-05-08T01:45:15.537Z,95350.00
2023-05-08T01:46:15.604Z,95346.00
2023-05-08T01:47:15.527Z,95346.00
2023-05-08T01:48:15.512Z,95344.00
2023-05-08T01:49:15.560Z,95344.00
2023-05-08T01:50:15.785Z,95344.00
2023-05-08T01:51:15.520Z,95344.00
2023-05-08T01:52:15.528Z,95348.00
2023-05-08T01:53:15.565Z,95346.00
2023-05-08T01:54:15.564Z,95348.00
2023-05-08T01:55:15.584Z,95346.00
2023-05-08T01:56:15.589Z,95348.00
2023-05-08T01:57:15.568Z,95348.00
2023-05-08T01:58:15.601Z,95350.00
2023-05-08T01:59:15.637Z,95352.00
2023-05-08T02:00:15.648Z,95352.00
2023-05-08T02:01:15.703Z,95352.00
2023-05-08T02:02:15.701Z,95353.00
2023-05-08T02:03:15.737Z,95353.00
2023-05-08T02:04:15.714Z,95357.00
2023-05-08T02:05:15.661Z,95357.00
2023-05-08T02:06:15.638Z,95359.00
2023-05-08T02:07:15.638Z,95357.00
2023-05-08T02:08:15.646Z,95359.00
2023-05-08T02:09:15.641Z,95359.00
2023-05-08T02:10:15.745Z,95355.00
2023-05-08T02:11:15.605Z,95357.00
2023-05-08T02:12:15.604Z,95355.00
2023-05-08T02:13:15.618Z,95352.00
2023-05-08T02:14:15.576Z,95353.00
2023-05-08T02:15:15.561Z,95350.00
2023-05-08T02:16:15.573Z,95348.00
2023-05-08T02:17:15.547Z,95350.00
2023-05-08T02:18:15.581Z,95350.00
2023-05-08T02:19:15.521Z,95350.00
2023-05-08T02:20:15.588Z,95350.00
2023-05-08T02:21:15.579Z,95352.00
2023-05-08T02:22:15.603Z,95350.00
2023-05-08T02:23:15.567Z,95350.00
2023-05-08T02:24:15.583Z,95350.00
2023-05-08T02:25:15.579Z,95350.00
2023-05-08T02:26:15.591Z,95350.00
2023-05-08T02:27:15.602Z,95348.00
2023-05-08T02:28:15.606Z,95348.00
2023-05-08T02:29:15.603Z,95346.00
2023-05-08T02:30:15.732Z,95346.00
2023-05-08T02:31:15.594Z,95344.00
2023-05-08T02:32:15.639Z,95346.00
2023-05-08T02:33:15.606Z,95346.00
2023-05-08T02:34:15.587Z,95346.00
2023-05-08T02:35:15.573Z,95346.00
2023-05-08T02:36:15.555Z,95344.00
2023-05-08T02:37:15.577Z,95344.00
2023-05-08T02:38:15.542Z,95346.00
2023-05-08T02:39:15.532Z,95344.00
2023-05-08T02:40:15.665Z,95346.00
2023-05-08T02:41:15.517Z,95346.00
2023-05-08T02:42:15.487Z,95346.00
2023-05-08T02:43:15.531Z,95344.00
2023-05-08T02:44:15.462Z,95346.00
2023-05-08T02:45:15.464Z,95348.00
2023-05-08T02:46:15.584Z,95348.00
2023-05-08T02:47:15.432Z,95348.00
2023-05-08T02:48:15.447Z,95352.00
2023-05-08T02:49:15.429Z,95350.00
2023-05-08T02:50:15.419Z,95350.00
2023-05-08T02:51:15.421Z,95348.00
2023-05-08T02:52:15.422Z,95350.00
2023-05-08T02:53:15.425Z,95352.00
2023-05-08T02:54:15.394Z,95352.00
2023-05-08T02:55:15.391Z,95348.00
2023-05-08T02:56:15.388Z,95350.00
2023-05-08T02:57:15.370Z,95348.00
2023-05-08T02:58:15.365Z,95350.00
2023-05-08T02:59:15.369Z,95346.00
2023-05-08T03:00:15.357Z,95348.00
2023-05-08T03:01:15.353Z,95348.00
2023-05-08T03:02:15.346Z,95348.00
2023-05-08T03:03:15.529Z,95348.00
2023-05-08T03:04:15.305Z,95348.00
2023-05-08T03:05:15.295Z,95350.00
2023-05-08T03:06:15.272Z,95350.00
2023-05-08T03:07:15.254Z,95350.00
2023-05-08T03:08:15.244Z,95350.00
2023-05-08T03:09:15.261Z,95350.00
2023-05-08T03:10:15.447Z,95350.00
2023-05-08T03:11:15.230Z,95348.00
2023-05-08T03:12:15.251Z,95348.00
2023-05-08T03:13:15.312Z,95348.00
2023-05-08T03:14:15.253Z,95350.00
2023-05-08T03:15:15.233Z,95350.00
2023-05-08T03:16:15.357Z,95348.00
2023-05-08T03:17:15.237Z,95350.00
2023-05-08T03:18:15.240Z,95348.00
2023-05-08T03:19:15.232Z,95352.00
2023-05-08T03:20:15.429Z,95350.00
2023-05-08T03:21:15.216Z,95350.00
2023-05-08T03:22:15.208Z,95352.00
2023-05-08T03:23:15.200Z,95350.00
2023-05-08T03:24:15.199Z,95350.00
2023-05-08T03:25:15.231Z,95350.00
2023-05-08T03:26:15.189Z,95352.00
2023-05-08T03:27:15.189Z,95350.00
2023-05-08T03:28:15.188Z,95352.00
2023-05-08T03:29:15.204Z,95352.00
2023-05-08T03:30:15.428Z,95352.00
2023-05-08T03:31:15.279Z,95352.00
2023-05-08T03:32:15.184Z,95350.00
2023-05-08T03:33:15.186Z,95352.00
2023-05-08T03:34:15.164Z,95352.00
2023-05-08T03:35:15.169Z,95353.00
2023-05-08T03:36:15.184Z,95350.00
2023-05-08T03:37:15.186Z,95350.00
2023-05-08T03:38:15.190Z,95352.00
2023-05-08T03:39:15.204Z,95355.00
2023-05-08T03:40:15.216Z,95353.00
2023-05-08T03:41:15.238Z,95353.00
2023-05-08T03:42:15.210Z,95355.00
2023-05-08T03:43:15.200Z,95353.00
2023-05-08T03:44:15.165Z,95355.00
2023-05-08T03:45:15.144Z,95353.00
2023-05-08T03:46:15.158Z,95353.00
2023-05-08T03:47:15.136Z,95353.00
2023-05-08T03:48:15.229Z,95355.00
2023-05-08T03:49:15.110Z,95359.00
2023-05-08T03:50:15.204Z,95357.00
2023-05-08T03:51:15.094Z,95357.00
2023-05-08T03:52:15.112Z,95359.00
2023-05-08T03:53:15.076Z,95357.00
2023-05-08T03:54:15.081Z,95357.00
2023-05-08T03:55:15.112Z,95355.00
2023-05-08T03:56:15.123Z,95359.00
2023-05-08T03:57:15.161Z,95357.00
2023-05-08T03:58:15.161Z,95355.00
2023-05-08T03:59:15.136Z,95359.00
2023-05-08T04:00:15.262Z,95357.00
2023-05-08T04:01:15.141Z,95357.00
2023-05-08T04:02:15.204Z,95357.00
2023-05-08T04:03:15.226Z,95361.00
2023-05-08T04:04:15.204Z,95361.00
2023-05-08T04:05:15.185Z,95363.00
2023-05-08T04:06:15.210Z,95363.00
2023-05-08T04:07:15.235Z,95365.00
2023-05-08T04:08:15.263Z,95367.00
2023-05-08T04:09:15.271Z,95369.00
2023-05-08T04:10:15.498Z,95371.00
2023-05-08T04:11:15.317Z,95371.00
2023-05-08T04:12:15.279Z,95371.00
2023-05-08T04:13:15.348Z,95375.00
2023-05-08T04:14:15.256Z,95375.00
2023-05-08T04:15:15.633Z,95377.00
2023-05-08T04:16:15.293Z,95377.00
2023-05-08T04:17:15.295Z,95381.00
2023-05-08T04:18:15.309Z,95379.00
2023-05-08T04:19:15.339Z,95379.00
2023-05-08T04:20:15.324Z,95379.00
2023-05-08T04:21:15.370Z,95381.00
2023-05-08T04:22:15.400Z,95383.00
2023-05-08T04:23:15.407Z,95385.00
2023-05-08T04:24:15.415Z,95385.00
2023-05-08T04:25:15.666Z,95385.00
2023-05-08T04:26:16.485Z,95387.00
2023-05-08T04:27:15.451Z,95387.00
2023-05-08T04:28:15.475Z,95391.00
2023-05-08T04:29:15.503Z,95393.00
2023-05-08T04:30:15.486Z,95395.00
2023-05-08T04:31:15.631Z,95397.00
2023-05-08T04:32:15.539Z,95399.00
2023-05-08T04:33:15.608Z,95406.00
2023-05-08T04:34:15.479Z,95397.00
2023-05-08T04:35:15.605Z,95397.00
2023-05-08T04:36:15.487Z,95399.00
2023-05-08T04:37:15.514Z,95399.00
2023-05-08T04:38:15.536Z,95406.00
2023-05-08T04:39:15.533Z,95406.00
2023-05-08T04:40:15.530Z,95406.00
2023-05-08T04:41:15.543Z,95406.00
2023-05-08T04:42:15.514Z,95406.00
2023-05-08T04:43:15.503Z,95408.00
2023-05-08T04:44:15.501Z,95410.00
2023-05-08T04:45:16.455Z,95410.00
2023-05-08T04:46:15.500Z,95410.00
2023-05-08T04:47:15.465Z,95410.00
2023-05-08T04:48:15.476Z,95408.00
2023-05-08T04:49:15.453Z,95408.00
2023-05-08T04:50:15.469Z,95410.00
2023-05-08T04:51:15.431Z,95410.00
2023-05-08T04:52:15.418Z,95414.00
2023-05-08T04:53:15.428Z,95414.00
2023-05-08T04:54:15.415Z,95416.00
2023-05-08T04:55:15.479Z,95414.00
2023-05-08T04:56:15.377Z,95414.00
2023-05-08T04:57:15.369Z,95412.00
2023-05-08T04:58:15.366Z,95410.00
2023-05-08T04:59:16.168Z,95410.00
2023-05-08T05:00:15.358Z,95414.00
2023-05-08T05:01:15.402Z,95412.00
2023-05-08T05:02:15.321Z,95414.00
2023-05-08T05:03:15.411Z,95414.00
2023-05-08T05:04:15.337Z,95416.00
2023-05-08T05:05:15.816Z,95416.00
2023-05-08T05:06:15.287Z,95418.00
2023-05-08T05:07:15.289Z,95420.00
2023-05-08T05:08:15.284Z,95418.00
2023-05-08T05:09:15.301Z,95418.00
2023-05-08T05:10:15.276Z,95418.00
2023-05-08T05:11:15.284Z,95414.00
2023-05-08T05:12:15.252Z,95412.00
2023-05-08T05:13:15.341Z,95416.00
2023-05-08T05:14:15.267Z,95418.00
2023-05-08T05:15:15.334Z,95416.00
2023-05-08T05:16:15.305Z,95416.00
2023-05-08T05:17:15.269Z,95418.00
2023-05-08T05:18:15.251Z,95420.00
2023-05-08T05:19:15.257Z,95422.00
2023-05-08T05:20:15.714Z,95420.00
2023-05-08T05:21:15.273Z,95420.00
2023-05-08T05:22:15.694Z,95422.00
2023-05-08T05:23:15.259Z,95424.00
2023-05-08T05:24:15.256Z,95422.00
2023-05-08T05:25:15.498Z,95422.00
2023-05-08T05:26:15.683Z,95426.00
2023-05-08T05:27:15.290Z,95422.00
2023-05-08T05:28:15.576Z,95426.00
2023-05-08T05:29:15.301Z,95428.00
2023-05-08T05:30:15.404Z,95428.00
2023-05-08T05:31:15.346Z,95434.00
2023-05-08T05:32:15.692Z,95430.00
2023-05-08T05:33:15.319Z,95432.00
2023-05-08T05:34:15.263Z,95432.00
2023-05-08T05:35:15.443Z,95432.00
2023-05-08T05:36:15.248Z,95432.00
2023-05-08T05:37:15.689Z,95436.00
2023-05-08T05:38:15.245Z,95434.00
2023-05-08T05:39:15.226Z,95436.00
2023-05-08T05:40:15.682Z,95432.00
2023-05-08T05:41:15.225Z,95432.00
2023-05-08T05:42:15.687Z,95432.00
2023-05-08T05:43:15.212Z,95434.00
2023-05-08T05:44:15.213Z,95436.00
2023-05-08T05:45:15.768Z,95436.00
2023-05-08T05:46:15.273Z,95442.00
2023-05-08T05:47:15.283Z,95444.00
2023-05-08T05:48:15.216Z,95442.00
2023-05-08T05:49:15.293Z,95444.00
2023-05-08T05:50:18.907Z,95442.00
2023-05-08T05:52:15.189Z,95442.00
2023-05-08T05:53:15.169Z,95446.00
2023-05-08T05:54:16.164Z,95444.00
2023-05-08T05:55:15.441Z,95446.00
2023-05-08T05:56:15.140Z,95448.00
2023-05-08T05:57:15.200Z,95450.00
2023-05-08T05:58:15.224Z,95450.00
2023-05-08T05:59:18.287Z,95446.00
2023-05-08T06:00:16.079Z,95448.00
2023-05-08T06:01:30.683Z,95450.00
2023-05-08T06:02:15.212Z,95450.00
2023-05-08T06:03:15.164Z,95453.00
2023-05-08T06:04:15.052Z,95452.00
2023-05-08T06:05:15.166Z,95453.00
2023-05-08T06:06:15.032Z,95453.00
2023-05-08T06:07:15.048Z,95452.00
2023-05-08T06:08:15.002Z,95455.00
2023-05-08T06:09:15.011Z,95457.00
2023-05-08T06:10:14.987Z,95457.00
2023-05-08T06:11:14.970Z,95459.00
2023-05-08T06:12:15.951Z,95459.00
2023-05-08T06:13:15.009Z,95461.00
2023-05-08T06:14:14.946Z,95461.00
2023-05-08T06:15:15.416Z,95461.00
2023-05-08T06:16:14.925Z,95461.00
2023-05-08T06:17:14.963Z,95461.00
2023-05-08T06:18:15.696Z,95461.00
2023-05-08T06:19:14.898Z,95461.00
2023-05-08T06:20:15.208Z,95461.00
2023-05-08T06:21:14.904Z,95461.00
2023-05-08T06:22:15.053Z,95463.00
2023-05-08T06:23:14.853Z,95465.00
2023-05-08T06:24:14.835Z,95461.00
2023-05-08T06:25:15.378Z,95463.00
2023-05-08T06:26:14.820Z,95463.00
2023-05-08T06:27:15.197Z,95463.00
2023-05-08T06:28:14.829Z,95465.00
2023-05-08T06:29:14.792Z,95465.00
2023-05-08T06:30:15.205Z,95461.00
2023-05-08T06:31:14.801Z,95459.00
2023-05-08T06:32:14.756Z,95461.00
2023-05-08T06:33:14.744Z,95459.00
2023-05-08T06:34:15.728Z,95461.00
2023-05-08T06:35:15.283Z,95459.00
2023-05-08T06:36:14.718Z,95459.00
2023-05-08T06:37:14.736Z,95461.00
2023-05-08T06:38:14.695Z,95461.00
2023-05-08T06:39:14.672Z,95463.00
2023-05-08T06:40:14.674Z,95463.00
2023-05-08T06:41:15.478Z,95463.00
2023-05-08T06:42:14.642Z,95463.00
2023-05-08T06:43:15.634Z,95463.00
2023-05-08T06:44:14.616Z,95463.00
2023-05-08T06:45:15.032Z,95465.00
2023-05-08T06:46:14.654Z,95465.00
2023-05-08T06:47:14.740Z,95467.00
2023-05-08T06:48:14.605Z,95465.00
2023-05-08T06:49:14.611Z,95465.00
2023-05-08T06:50:14.625Z,95463.00
2023-05-08T06:51:14.580Z,95463.00
2023-05-08T06:52:14.738Z,95467.00
2023-05-08T06:53:14.580Z,95467.00
2023-05-08T06:54:14.741Z,95469.00
2023-05-08T06:55:14.940Z,95469.00
2023-05-08T06:56:14.534Z,95467.00
2023-05-08T06:57:14.565Z,95471.00
2023-05-08T06:58:14.743Z,95467.00
2023-05-08T06:59:14.553Z,95471.00
2023-05-08T07:00:14.539Z,95469.00
2023-05-08T07:01:17.717Z,95467.00
2023-05-08T07:02:14.501Z,95469.00
2023-05-08T07:03:14.863Z,95467.00
2023-05-08T07:04:14.469Z,95469.00
2023-05-08T07:05:14.945Z,95471.00
2023-05-08T07:06:14.428Z,95471.00
2023-05-08T07:07:15.418Z,95471.00
2023-05-08T07:08:14.742Z,95469.00
2023-05-08T07:09:14.418Z,95469.00
2023-05-08T07:10:14.343Z,95471.00
2023-05-08T07:11:14.341Z,95471.00
2023-05-08T07:12:14.313Z,95473.00
2023-05-08T07:13:14.809Z,95473.00
2023-05-08T07:14:14.289Z,95473.00
2023-05-08T07:15:25.559Z,95473.00
2023-05-08T07:16:14.320Z,95475.00
2023-05-08T07:17:15.251Z,95475.00
2023-05-08T07:18:14.748Z,95481.00
2023-05-08T07:19:14.247Z,95483.00
2023-05-08T07:20:14.226Z,95481.00
2023-05-08T07:21:14.223Z,95481.00
2023-05-08T07:22:17.722Z,95483.00
2023-05-08T07:23:14.273Z,95481.00
2023-05-08T07:24:14.172Z,95483.00
2023-05-08T07:25:14.557Z,95481.00
2023-05-08T07:26:14.166Z,95481.00
2023-05-08T07:27:14.126Z,95481.00
2023-05-08T07:28:14.149Z,95485.00
2023-05-08T07:29:14.224Z,95483.00
2023-05-08T07:30:14.118Z,95481.00
2023-05-08T07:31:14.191Z,95485.00
2023-05-08T07:32:14.107Z,95487.00
2023-05-08T07:33:15.088Z,95487.00
2023-05-08T07:34:14.235Z,95485.00
2023-05-08T07:35:14.265Z,95489.00
2023-05-08T07:36:15.039Z,95487.00
2023-05-08T07:37:29.680Z,95487.00
2023-05-08T07:38:14.029Z,95485.00
2023-05-08T07:39:14.231Z,95487.00
2023-05-08T07:40:14.022Z,95487.00
2023-05-08T07:41:14.136Z,95485.00
2023-05-08T07:42:14.015Z,95489.00
2023-05-08T07:43:15.029Z,95489.00
2023-05-08T07:44:31.780Z,95485.00
2023-05-08T07:45:14.374Z,95491.00
2023-05-08T07:46:13.943Z,95485.00
2023-05-08T07:47:14.071Z,95491.00
2023-05-08T07:48:14.288Z,95491.00
2023-05-08T07:49:13.856Z,95491.00
2023-05-08T07:50:13.836Z,95493.00
2023-05-08T07:51:13.796Z,95489.00
2023-05-08T07:52:13.798Z,95487.00
2023-05-08T07:53:14.230Z,95485.00
2023-05-08T07:54:14.265Z,95487.00
2023-05-08T07:55:16.960Z,95489.00
2023-05-08T07:56:13.701Z,95491.00
2023-05-08T07:57:14.271Z,95489.00
2023-05-08T07:58:13.670Z,95491.00
2023-05-08T07:59:13.734Z,95491.00
2023-05-08T08:00:13.625Z,95491.00
2023-05-08T08:01:13.594Z,95491.00
2023-05-08T08:02:17.331Z,95489.00
2023-05-08T08:03:13.671Z,95491.00
2023-05-08T08:04:20.973Z,95491.00
2023-05-08T08:05:13.972Z,95493.00
2023-05-08T08:06:13.482Z,95493.00
2023-05-08T08:07:13.467Z,95495.00
2023-05-08T08:08:13.776Z,95495.00
2023-05-08T08:09:13.676Z,95495.00
2023-05-08T08:10:13.402Z,95495.00
2023-05-08T08:11:13.357Z,95495.00
2023-05-08T08:12:13.356Z,95497.00
2023-05-08T08:13:13.875Z,95493.00
2023-05-08T08:14:13.764Z,95495.00
2023-05-08T08:15:13.954Z,95493.00
2023-05-08T08:16:13.250Z,95493.00
2023-05-08T08:17:13.340Z,95497.00
2023-05-08T08:18:13.271Z,95499.00
2023-05-08T08:19:13.297Z,95495.00
2023-05-08T08:20:13.310Z,95495.00
2023-05-08T08:21:13.334Z,95495.00
2023-05-08T08:22:14.347Z,95495.00
2023-05-08T08:23:13.402Z,95499.00
2023-05-08T08:24:13.443Z,95497.00
2023-05-08T08:25:13.934Z,95497.00
2023-05-08T08:26:13.494Z,95497.00
2023-05-08T08:27:13.534Z,95495.00
2023-05-08T08:28:13.583Z,95495.00
2023-05-08T08:29:13.789Z,95497.00
2023-05-08T08:30:18.062Z,95497.00
2023-05-08T08:31:13.823Z,95493.00
2023-05-08T08:32:13.602Z,95495.00
2023-05-08T08:33:13.994Z,95497.00
2023-05-08T08:34:13.529Z,95493.00
2023-05-08T08:35:13.798Z,95499.00
2023-05-08T08:36:13.521Z,95497.00
2023-05-08T08:37:13.459Z,95497.00
2023-05-08T08:38:13.423Z,95499.00
2023-05-08T08:39:15.349Z,95499.00
2023-05-08T08:40:13.825Z,95500.00
2023-05-08T08:41:20.713Z,95499.00
2023-05-08T08:42:13.292Z,95499.00
2023-05-08T08:43:13.262Z,95499.00
2023-05-08T08:44:20.754Z,95500.00
2023-05-08T08:45:13.644Z,95500.00
2023-05-08T08:46:14.220Z,95500.00
2023-05-08T08:47:13.172Z,95500.00
2023-05-08T08:48:16.334Z,95497.00
2023-05-08T08:49:13.100Z,95497.00
2023-05-08T08:50:14.717Z,95499.00
2023-05-08T08:51:13.063Z,95499.00
2023-05-08T08:52:13.033Z,95499.00
2023-05-08T08:53:13.006Z,95495.00
2023-05-08T08:54:13.146Z,95497.00
2023-05-08T08:55:13.585Z,95493.00
2023-05-08T08:56:12.953Z,95497.00
2023-05-08T08:57:16.173Z,95495.00
2023-05-08T08:58:13.247Z,95497.00
2023-05-08T08:59:12.864Z,95495.00
2023-05-08T09:00:13.069Z,95495.00
2023-05-08T09:01:12.844Z,95495.00
2023-05-08T09:02:12.887Z,95495.00
2023-05-08T09:03:12.859Z,95493.00
2023-05-08T09:04:12.751Z,95491.00
2023-05-08T09:05:12.946Z,95495.00
2023-05-08T09:06:12.693Z,95495.00
2023-05-08T09:07:12.671Z,95495.00
2023-05-08T09:08:12.629Z,95495.00
2023-05-08T09:09:12.598Z,95493.00
2023-05-08T09:10:12.825Z,95493.00
2023-05-08T09:11:12.543Z,95493.00
2023-05-08T09:12:12.520Z,95493.00
2023-05-08T09:13:12.523Z,95493.00
2023-05-08T09:14:12.459Z,95495.00
2023-05-08T09:15:12.808Z,95491.00
2023-05-08T09:16:12.967Z,95495.00
2023-05-08T09:17:12.369Z,95493.00
2023-05-08T09:18:12.448Z,95495.00
2023-05-08T09:19:12.326Z,95493.00
2023-05-08T09:20:12.406Z,95493.00
2023-05-08T09:21:12.764Z,95493.00
2023-05-08T09:22:12.455Z,95491.00
2023-05-08T09:23:12.247Z,95493.00
2023-05-08T09:24:12.245Z,95489.00
2023-05-08T09:25:12.422Z,95489.00
2023-05-08T09:26:12.266Z,95489.00
2023-05-08T09:27:12.242Z,95489.00
2023-05-08T09:28:12.251Z,95491.00
2023-05-08T09:29:12.277Z,95489.00
2023-05-08T09:30:12.325Z,95485.00
2023-05-08T09:31:12.818Z,95487.00
2023-05-08T09:32:12.660Z,95487.00
2023-05-08T09:33:13.051Z,95489.00
2023-05-08T09:34:12.359Z,95487.00
2023-05-08T09:35:12.795Z,95485.00
2023-05-08T09:36:12.778Z,95487.00
2023-05-08T09:37:12.420Z,95485.00
2023-05-08T09:38:12.410Z,95485.00
2023-05-08T09:39:12.431Z,95483.00
2023-05-08T09:40:12.427Z,95483.00
2023-05-08T09:41:28.366Z,95483.00
2023-05-08T09:42:12.428Z,95481.00
2023-05-08T09:43:12.397Z,95481.00
2023-05-08T09:44:12.373Z,95481.00
2023-05-08T09:45:12.827Z,95483.00
2023-05-08T09:46:12.811Z,95481.00
2023-05-08T09:47:12.299Z,95481.00
2023-05-08T09:48:12.449Z,95485.00
2023-05-08T09:49:12.219Z,95485.00
2023-05-08T09:50:12.547Z,95483.00
2023-05-08T09:51:12.298Z,95483.00
2023-05-08T09:52:12.179Z,95485.00
2023-05-08T09:53:12.303Z,95483.00
2023-05-08T09:54:12.091Z,95485.00
2023-05-08T09:55:12.076Z,95485.00
2023-05-08T09:56:12.319Z,95481.00
2023-05-08T09:57:12.014Z,95481.00
2023-05-08T09:58:11.993Z,95481.00
2023-05-08T09:59:11.964Z,95483.00
2023-05-08T10:00:12.284Z,95485.00
2023-05-08T10:01:12.372Z,95485.00
2023-05-08T10:02:11.872Z,95483.00
2023-05-08T10:03:11.853Z,95481.00
2023-05-08T10:04:11.972Z,95481.00
2023-05-08T10:05:11.821Z,95483.00
2023-05-08T10:06:11.916Z,95479.00
2023-05-08T10:07:11.707Z,95483.00
2023-05-08T10:08:11.711Z,95481.00
2023-05-08T10:09:11.644Z,95479.00
2023-05-08T10:10:11.772Z,95481.00
2023-05-08T10:11:11.601Z,95479.00
2023-05-08T10:12:11.561Z,95479.00
2023-05-08T10:13:11.878Z,95481.00
2023-05-08T10:14:11.508Z,95481.00
2023-05-08T10:15:11.460Z,95481.00
2023-05-08T10:16:11.459Z,95479.00
2023-05-08T10:17:11.801Z,95481.00
2023-05-08T10:18:12.558Z,95477.00
2023-05-08T10:19:11.379Z,95479.00
2023-05-08T10:20:11.706Z,95479.00
2023-05-08T10:21:12.663Z,95477.00
2023-05-08T10:22:11.367Z,95477.00
2023-05-08T10:23:11.371Z,95475.00
2023-05-08T10:24:11.398Z,95475.00
2023-05-08T10:25:11.570Z,95475.00
2023-05-08T10:26:11.848Z,95477.00
2023-05-08T10:27:11.381Z,95473.00
2023-05-08T10:28:11.292Z,95475.00
2023-05-08T10:29:11.279Z,95471.00
2023-05-08T10:30:11.487Z,95473.00
2023-05-08T10:31:11.387Z,95473.00
2023-05-08T10:32:11.341Z,95469.00
2023-05-08T10:33:11.304Z,95469.00
2023-05-08T10:34:11.271Z,95471.00
2023-05-08T10:35:11.263Z,95471.00
2023-05-08T10:36:11.465Z,95469.00
2023-05-08T10:37:11.267Z,95465.00
2023-05-08T10:38:11.323Z,95467.00
2023-05-08T10:39:11.252Z,95465.00
2023-05-08T10:40:11.610Z,95465.00
2023-05-08T10:41:11.395Z,95463.00
2023-05-08T10:42:11.219Z,95463.00
2023-05-08T10:43:12.011Z,95459.00
2023-05-08T10:44:11.212Z,95461.00
2023-05-08T10:45:11.205Z,95457.00
2023-05-08T10:46:14.602Z,95459.00
2023-05-08T10:47:11.174Z,95457.00
2023-05-08T10:48:11.169Z,95455.00
2023-05-08T10:49:11.183Z,95453.00
2023-05-08T10:50:11.284Z,95452.00
2023-05-08T10:51:11.070Z,95452.00
2023-05-08T10:52:11.063Z,95452.00
2023-05-08T10:53:11.317Z,95448.00
2023-05-08T10:54:11.038Z,95452.00
2023-05-08T10:55:10.976Z,95448.00
2023-05-08T10:56:10.957Z,95450.00
2023-05-08T10:57:10.923Z,95448.00
2023-05-08T10:58:14.939Z,95450.00
2023-05-08T10:59:11.306Z,95448.00
2023-05-08T11:00:10.940Z,95446.00
2023-05-08T11:01:11.393Z,95444.00
2023-05-08T11:02:10.813Z,95442.00
2023-05-08T11:03:23.689Z,95444.00
2023-05-08T11:04:10.850Z,95442.00
2023-05-08T11:05:10.717Z,95442.00
2023-05-08T11:06:10.861Z,95442.00
2023-05-08T11:07:10.675Z,95444.00
2023-05-08T11:08:10.684Z,95446.00
2023-05-08T11:09:10.641Z,95442.00
2023-05-08T11:10:10.924Z,95440.00
2023-05-08T11:11:10.565Z,95442.00
2023-05-08T11:12:10.552Z,95440.00
2023-05-08T11:13:10.539Z,95438.00
2023-05-08T11:14:10.470Z,95436.00
2023-05-08T11:15:10.813Z,95436.00
2023-05-08T11:16:10.945Z,95436.00
2023-05-08T11:17:10.414Z,95438.00
2023-05-08T11:18:10.429Z,95432.00
2023-05-08T11:19:10.342Z,95434.00
2023-05-08T11:20:10.328Z,95434.00
2023-05-08T11:21:10.292Z,95436.00
2023-05-08T11:22:10.304Z,95436.00
2023-05-08T11:23:10.258Z,95434.00
2023-05-08T11:24:10.341Z,95434.00
2023-05-08T11:25:10.348Z,95434.00
2023-05-08T11:26:10.176Z,95432.00
2023-05-08T11:27:10.153Z,95432.00
2023-05-08T11:28:10.313Z,95430.00
2023-05-08T11:29:10.308Z,95430.00
2023-05-08T11:30:10.166Z,95430.00
2023-05-08T11:31:10.091Z,95428.00
2023-05-08T11:32:17.438Z,95428.00
2023-05-08T11:33:10.035Z,95426.00
2023-05-08T11:34:10.311Z,95426.00
2023-05-08T11:35:10.003Z,95426.00
2023-05-08T11:36:09.985Z,95422.00
2023-05-08T11:37:10.312Z,95420.00
2023-05-08T11:38:09.948Z,95420.00
2023-05-08T11:39:09.891Z,95420.00
2023-05-08T11:40:09.903Z,95416.00
2023-05-08T11:41:09.836Z,95416.00
2023-05-08T11:42:10.321Z,95416.00
2023-05-08T11:43:09.822Z,95416.00
2023-05-08T11:44:09.799Z,95418.00
2023-05-08T11:45:09.808Z,95418.00